createdAt,value
2019-05-13T00:00:09.392Z,0.00
2019-05-13T00:01:09.383Z,0.00
2019-05-13T00:02:09.366Z,0.00
2019-05-13T00:03:09.356Z,0.00
2019-05-13T00:04:09.356Z,0.00
2019-05-13T00:05:09.343Z,0.00
2019-05-13T00:06:09.331Z,0.00
2019-05-13T00:07:09.318Z,0.00
2019-05-13T00:08:09.302Z,0.00
2019-05-13T00:09:09.291Z,0.00
2019-05-13T00:10:09.285Z,0.00
2019-05-13T00:11:09.269Z,0.00
2019-05-13T00:12:09.263Z,0.00
2019-05-13T00:13:09.251Z,0.00
2019-05-13T00:14:09.238Z,0.00
2019-05-13T00:15:09.245Z,0.00
2019-05-13T00:16:09.220Z,0.00
2019-05-13T00:17:09.212Z,0.00
2019-05-13T00:18:09.194Z,0.00
2019-05-13T00:19:09.188Z,0.00
2019-05-13T00:20:09.183Z,0.00
2019-05-13T00:21:09.162Z,0.00
2019-05-13T00:22:09.153Z,0.00
2019-05-13T00:23:09.144Z,0.00
2019-05-13T00:24:09.162Z,0.00
2019-05-13T00:25:09.130Z,0.00
2019-05-13T00:26:09.111Z,0.00
2019-05-13T00:27:09.097Z,0.00
2019-05-13T00:28:09.086Z,0.00
2019-05-13T00:29:09.098Z,0.00
2019-05-13T00:30:09.074Z,0.00
2019-05-13T00:31:09.068Z,0.00
2019-05-13T00:32:09.042Z,0.00
2019-05-13T00:33:09.031Z,0.00
2019-05-13T00:34:09.024Z,0.00
2019-05-13T00:35:09.042Z,0.00
2019-05-13T00:36:08.999Z,0.00
2019-05-13T00:37:11.712Z,0.00
2019-05-13T00:38:09.016Z,0.00
2019-05-13T00:39:08.971Z,0.00
2019-05-13T00:40:08.968Z,0.00
2019-05-13T00:41:08.948Z,0.00
2019-05-13T00:42:08.941Z,0.00
2019-05-13T00:43:08.933Z,0.00
2019-05-13T00:44:08.914Z,0.00
2019-05-13T00:45:08.933Z,0.00
2019-05-13T00:46:08.910Z,0.00
2019-05-13T00:47:08.887Z,0.00
2019-05-13T00:48:08.870Z,0.00
2019-05-13T00:49:08.859Z,0.00
2019-05-13T00:50:08.849Z,0.00
2019-05-13T00:51:08.847Z,0.00
2019-05-13T00:52:08.831Z,0.00
2019-05-13T00:53:08.823Z,0.00
2019-05-13T00:54:08.806Z,0.00
2019-05-13T00:55:10.069Z,0.00
2019-05-13T00:56:08.797Z,0.00
2019-05-13T00:57:08.775Z,0.00
2019-05-13T00:58:08.766Z,0.00
2019-05-13T00:59:08.784Z,0.00
2019-05-13T01:00:08.745Z,0.00
2019-05-13T01:01:08.735Z,0.00
2019-05-13T01:02:08.725Z,0.00
2019-05-13T01:03:08.746Z,0.00
2019-05-13T01:04:08.708Z,0.00
2019-05-13T01:05:08.690Z,0.00
2019-05-13T01:06:08.683Z,0.00
2019-05-13T01:07:22.888Z,0.00
2019-05-13T01:08:09.774Z,0.00
2019-05-13T01:09:08.650Z,0.00
2019-05-13T01:10:08.641Z,0.00
2019-05-13T01:11:08.628Z,0.00
2019-05-13T01:12:08.613Z,0.00
2019-05-13T01:13:08.603Z,0.00
2019-05-13T01:14:08.604Z,0.00
2019-05-13T01:15:08.591Z,0.00
2019-05-13T01:16:08.588Z,0.00
2019-05-13T01:17:08.560Z,0.00
2019-05-13T01:18:08.561Z,0.00
2019-05-13T01:19:08.539Z,0.00
2019-05-13T01:20:08.563Z,0.00
2019-05-13T01:21:08.601Z,0.00
2019-05-13T01:22:08.505Z,0.00
2019-05-13T01:23:08.495Z,0.00
2019-05-13T01:24:08.486Z,0.00
2019-05-13T01:25:08.477Z,0.00
2019-05-13T01:26:08.472Z,0.00
2019-05-13T01:27:08.452Z,0.00
2019-05-13T01:28:08.462Z,0.00
2019-05-13T01:29:08.431Z,0.00
2019-05-13T01:30:08.419Z,0.00
2019-05-13T01:31:08.419Z,0.00
2019-05-13T01:32:08.401Z,0.00
2019-05-13T01:33:08.387Z,0.00
2019-05-13T01:34:08.378Z,0.00
2019-05-13T01:35:08.393Z,0.00
2019-05-13T01:36:08.378Z,0.00
2019-05-13T01:37:08.355Z,0.00
2019-05-13T01:38:08.340Z,0.00
2019-05-13T01:39:08.323Z,0.00
2019-05-13T01:40:08.319Z,0.00
2019-05-13T01:41:08.310Z,0.00
2019-05-13T01:42:08.295Z,0.00
2019-05-13T01:43:08.284Z,0.00
2019-05-13T01:44:08.268Z,0.00
2019-05-13T01:45:08.258Z,0.00
2019-05-13T01:46:08.257Z,0.00
2019-05-13T01:47:08.239Z,0.00
2019-05-13T01:48:08.352Z,0.00
2019-05-13T01:49:08.215Z,0.00
2019-05-13T01:50:08.206Z,0.00
2019-05-13T01:51:08.202Z,0.00
2019-05-13T01:52:08.182Z,0.00
2019-05-13T01:53:08.178Z,0.00
2019-05-13T01:54:08.161Z,0.00
2019-05-13T01:55:08.153Z,0.00
2019-05-13T01:56:08.173Z,0.00
2019-05-13T01:57:08.131Z,0.00
2019-05-13T01:58:08.116Z,0.00
2019-05-13T01:59:08.111Z,0.00
2019-05-13T02:00:08.102Z,0.00
2019-05-13T02:01:08.085Z,0.00
2019-05-13T02:02:08.078Z,0.00
2019-05-13T02:03:08.066Z,0.00
2019-05-13T02:04:08.058Z,0.00
2019-05-13T02:05:08.049Z,0.00
2019-05-13T02:06:08.032Z,0.00
2019-05-13T02:07:08.025Z,0.00
2019-05-13T02:08:08.011Z,0.00
2019-05-13T02:09:08.002Z,0.00
2019-05-13T02:10:07.989Z,0.00
2019-05-13T02:11:08.012Z,0.00
2019-05-13T02:12:07.978Z,0.00
2019-05-13T02:13:07.957Z,0.00
2019-05-13T02:14:07.946Z,0.00
2019-05-13T02:15:07.933Z,0.00
2019-05-13T02:16:07.920Z,0.00
2019-05-13T02:17:07.917Z,0.00
2019-05-13T02:18:07.946Z,0.00
2019-05-13T02:19:07.899Z,0.00
2019-05-13T02:20:07.877Z,0.00
2019-05-13T02:21:07.881Z,0.00
2019-05-13T02:22:07.861Z,0.00
2019-05-13T02:23:07.844Z,0.00
2019-05-13T02:24:07.837Z,0.00
2019-05-13T02:25:07.947Z,0.00
2019-05-13T02:26:07.825Z,0.00
2019-05-13T02:27:07.818Z,0.00
2019-05-13T02:28:10.310Z,0.00
2019-05-13T02:29:07.787Z,0.00
2019-05-13T02:30:07.785Z,0.00
2019-05-13T02:31:07.761Z,0.00
2019-05-13T02:32:07.788Z,0.00
2019-05-13T02:33:07.742Z,0.00
2019-05-13T02:34:07.732Z,0.00
2019-05-13T02:35:07.724Z,0.00
2019-05-13T02:36:07.721Z,0.00
2019-05-13T02:37:07.703Z,0.00
2019-05-13T02:38:19.837Z,0.00
2019-05-13T02:39:08.675Z,0.00
2019-05-13T02:40:07.665Z,0.00
2019-05-13T02:41:07.651Z,0.00
2019-05-13T02:42:07.653Z,0.00
2019-05-13T02:43:07.629Z,0.00
2019-05-13T02:44:07.622Z,0.00
2019-05-13T02:45:07.607Z,0.00
2019-05-13T02:46:07.609Z,0.00
2019-05-13T02:47:07.597Z,0.00
2019-05-13T02:48:07.574Z,0.00
2019-05-13T02:49:07.566Z,0.00
2019-05-13T02:50:07.555Z,0.00
2019-05-13T02:51:07.552Z,0.00
2019-05-13T02:52:07.544Z,0.00
2019-05-13T02:53:07.523Z,0.00
2019-05-13T02:54:07.512Z,0.00
2019-05-13T02:55:07.497Z,0.00
2019-05-13T02:56:07.494Z,0.00
2019-05-13T02:57:07.510Z,0.00
2019-05-13T02:58:07.470Z,0.00
2019-05-13T02:59:07.454Z,0.00
2019-05-13T03:00:07.443Z,0.00
2019-05-13T03:01:07.459Z,0.00
2019-05-13T03:02:07.434Z,0.00
2019-05-13T03:03:07.421Z,0.00
2019-05-13T03:04:07.401Z,0.00
2019-05-13T03:05:07.389Z,0.00
2019-05-13T03:06:07.383Z,0.00
2019-05-13T03:07:07.372Z,0.00
2019-05-13T03:08:07.470Z,0.00
2019-05-13T03:09:07.343Z,0.00
2019-05-13T03:10:07.334Z,0.00
2019-05-13T03:11:07.329Z,0.00
2019-05-13T03:12:07.314Z,0.00
2019-05-13T03:13:07.309Z,0.00
2019-05-13T03:14:07.301Z,0.00
2019-05-13T03:15:07.304Z,0.00
2019-05-13T03:16:07.277Z,0.00
2019-05-13T03:17:07.267Z,0.00
2019-05-13T03:18:07.260Z,0.00
2019-05-13T03:19:07.237Z,0.00
2019-05-13T03:20:11.630Z,0.00
2019-05-13T03:21:08.214Z,0.00
2019-05-13T03:22:07.205Z,0.00
2019-05-13T03:23:07.231Z,0.00
2019-05-13T03:24:07.189Z,0.00
2019-05-13T03:25:07.176Z,0.00
2019-05-13T03:26:07.171Z,0.00
2019-05-13T03:27:07.151Z,0.00
2019-05-13T03:28:07.141Z,0.00
2019-05-13T03:29:07.134Z,0.00
2019-05-13T03:30:07.115Z,0.00
2019-05-13T03:31:08.034Z,0.00
2019-05-13T03:32:07.831Z,0.00
2019-05-13T03:33:10.830Z,0.00
2019-05-13T03:34:08.133Z,0.00
2019-05-13T03:35:08.694Z,0.00
2019-05-13T03:36:08.337Z,0.00
2019-05-13T03:37:08.164Z,0.00
2019-05-13T03:38:07.078Z,0.00
2019-05-13T03:39:14.484Z,0.00
2019-05-13T03:40:08.005Z,0.00
2019-05-13T03:41:07.001Z,0.00
2019-05-13T03:42:06.997Z,0.00
2019-05-13T03:43:06.997Z,0.00
2019-05-13T03:44:07.018Z,0.00
2019-05-13T03:45:06.953Z,0.00
2019-05-13T03:46:06.945Z,0.00
2019-05-13T03:47:06.930Z,0.00
2019-05-13T03:48:06.943Z,0.00
2019-05-13T03:49:06.908Z,0.00
2019-05-13T03:50:06.900Z,0.00
2019-05-13T03:51:06.920Z,0.00
2019-05-13T03:52:06.881Z,0.00
2019-05-13T03:53:06.897Z,0.00
2019-05-13T03:54:06.860Z,0.00
2019-05-13T03:55:06.858Z,0.00
2019-05-13T03:56:06.837Z,0.00
2019-05-13T03:57:06.831Z,0.00
2019-05-13T03:58:06.824Z,0.00
2019-05-13T03:59:06.810Z,0.00
2019-05-13T04:00:06.793Z,0.00
2019-05-13T04:01:06.782Z,0.00
2019-05-13T04:02:06.772Z,0.00
2019-05-13T04:03:06.759Z,0.00
2019-05-13T04:04:06.763Z,0.00
2019-05-13T04:05:06.736Z,0.00
2019-05-13T04:06:06.725Z,0.00
2019-05-13T04:07:06.717Z,0.00
2019-05-13T04:08:06.710Z,0.00
2019-05-13T04:09:22.517Z,5.62
2019-05-13T04:10:07.677Z,5.62
2019-05-13T04:11:06.709Z,5.62
2019-05-13T04:12:06.660Z,5.62
2019-05-13T04:13:07.132Z,5.62
2019-05-13T04:14:06.647Z,5.62
2019-05-13T04:15:06.677Z,5.62
2019-05-13T04:16:06.623Z,5.62
2019-05-13T04:17:06.613Z,5.62
2019-05-13T04:18:06.597Z,5.62
2019-05-13T04:19:06.594Z,5.62
2019-05-13T04:20:06.573Z,5.62
2019-05-13T04:21:06.576Z,5.62
2019-05-13T04:22:06.556Z,5.62
2019-05-13T04:23:06.542Z,5.62
2019-05-13T04:24:06.568Z,5.62
2019-05-13T04:25:06.541Z,11.25
2019-05-13T04:26:06.512Z,11.25
2019-05-13T04:27:06.588Z,11.25
2019-05-13T04:28:06.491Z,11.25
2019-05-13T04:29:06.480Z,11.25
2019-05-13T04:30:06.464Z,11.25
2019-05-13T04:31:06.458Z,11.25
2019-05-13T04:32:06.438Z,11.25
2019-05-13T04:33:06.427Z,11.25
2019-05-13T04:34:06.510Z,11.25
2019-05-13T04:35:06.423Z,11.25
2019-05-13T04:36:06.440Z,11.25
2019-05-13T04:37:06.386Z,11.25
2019-05-13T04:38:09.202Z,11.25
2019-05-13T04:39:07.370Z,5.62
2019-05-13T04:40:06.355Z,11.25
2019-05-13T04:41:06.375Z,11.25
2019-05-13T04:42:06.337Z,11.25
2019-05-13T04:43:06.325Z,11.25
2019-05-13T04:44:06.313Z,11.25
2019-05-13T04:45:06.298Z,11.25
2019-05-13T04:46:06.297Z,11.25
2019-05-13T04:47:06.281Z,11.25
2019-05-13T04:48:06.269Z,11.25
2019-05-13T04:49:06.599Z,11.25
2019-05-13T04:50:06.248Z,11.25
2019-05-13T04:51:06.231Z,11.25
2019-05-13T04:52:06.222Z,11.25
2019-05-13T04:53:06.214Z,11.25
2019-05-13T04:54:06.201Z,11.25
2019-05-13T04:55:06.202Z,11.25
2019-05-13T04:56:06.184Z,11.25
2019-05-13T04:57:06.167Z,11.25
2019-05-13T04:58:06.179Z,16.88
2019-05-13T04:59:06.142Z,11.25
2019-05-13T05:00:06.145Z,11.25
2019-05-13T05:01:09.140Z,11.25
2019-05-13T05:02:06.120Z,11.25
2019-05-13T05:03:06.153Z,16.88
2019-05-13T05:04:11.739Z,16.88
2019-05-13T05:05:07.100Z,16.88
2019-05-13T05:06:06.075Z,16.88
2019-05-13T05:07:06.065Z,16.88
2019-05-13T05:08:06.052Z,16.88
2019-05-13T05:09:06.041Z,16.88
2019-05-13T05:10:23.381Z,16.88
2019-05-13T05:11:07.023Z,16.88
2019-05-13T05:12:06.006Z,16.88
2019-05-13T05:13:06.003Z,16.88
2019-05-13T05:14:05.986Z,22.50
2019-05-13T05:15:05.975Z,22.50
2019-05-13T05:16:05.961Z,22.50
2019-05-13T05:17:05.972Z,28.12
2019-05-13T05:18:05.942Z,28.12
2019-05-13T05:19:05.934Z,33.75
2019-05-13T05:20:05.925Z,33.75
2019-05-13T05:21:05.904Z,33.75
2019-05-13T05:22:05.900Z,33.75
2019-05-13T05:23:05.891Z,33.75
2019-05-13T05:24:05.871Z,33.75
2019-05-13T05:25:05.870Z,33.75
2019-05-13T05:26:05.863Z,33.75
2019-05-13T05:27:05.849Z,33.75
2019-05-13T05:28:05.835Z,33.75
2019-05-13T05:29:05.823Z,33.75
2019-05-13T05:30:05.816Z,33.75
2019-05-13T05:31:05.799Z,33.75
2019-05-13T05:32:05.791Z,33.75
2019-05-13T05:33:05.781Z,33.75
2019-05-13T05:34:06.793Z,33.75
2019-05-13T05:35:05.777Z,33.75
2019-05-13T05:36:05.751Z,33.75
2019-05-13T05:37:05.738Z,33.75
2019-05-13T05:38:05.723Z,33.75
2019-05-13T05:39:05.714Z,33.75
2019-05-13T05:40:05.714Z,33.75
2019-05-13T05:41:05.693Z,33.75
2019-05-13T05:42:05.694Z,39.38
2019-05-13T05:43:05.670Z,39.38
2019-05-13T05:44:05.663Z,39.38
2019-05-13T05:45:05.665Z,39.38
2019-05-13T05:46:05.724Z,45.00
2019-05-13T05:47:05.628Z,45.00
2019-05-13T05:48:05.618Z,45.00
2019-05-13T05:49:05.608Z,45.00
2019-05-13T05:50:05.603Z,39.38
2019-05-13T05:51:05.594Z,39.38
2019-05-13T05:52:05.585Z,39.38
2019-05-13T05:53:05.572Z,33.75
2019-05-13T05:54:05.553Z,33.75
2019-05-13T05:55:05.549Z,33.75
2019-05-13T05:56:05.534Z,33.75
2019-05-13T05:57:05.522Z,39.38
2019-05-13T05:58:05.514Z,39.38
2019-05-13T05:59:05.500Z,39.38
2019-05-13T06:00:05.521Z,45.00
2019-05-13T06:01:05.474Z,45.00
2019-05-13T06:02:05.477Z,45.00
2019-05-13T06:03:05.461Z,45.00
2019-05-13T06:04:05.450Z,45.00
2019-05-13T06:05:05.437Z,45.00
2019-05-13T06:06:05.429Z,45.00
2019-05-13T06:07:05.433Z,45.00
2019-05-13T06:08:05.400Z,45.00
2019-05-13T06:09:05.394Z,45.00
2019-05-13T06:10:05.388Z,45.00
2019-05-13T06:11:05.400Z,45.00
2019-05-13T06:12:05.389Z,45.00
2019-05-13T06:13:05.353Z,45.00
2019-05-13T06:14:05.348Z,45.00
2019-05-13T06:15:05.337Z,45.00
2019-05-13T06:16:05.326Z,39.38
2019-05-13T06:17:05.308Z,33.75
2019-05-13T06:18:05.299Z,45.00
2019-05-13T06:19:05.299Z,50.62
2019-05-13T06:20:05.348Z,45.00
2019-05-13T06:21:05.266Z,45.00
2019-05-13T06:22:05.254Z,45.00
2019-05-13T06:23:05.244Z,45.00
2019-05-13T06:24:05.238Z,50.62
2019-05-13T06:25:05.226Z,50.62
2019-05-13T06:26:05.222Z,50.62
2019-05-13T06:27:05.201Z,45.00
2019-05-13T06:28:05.191Z,45.00
2019-05-13T06:29:05.243Z,45.00
2019-05-13T06:30:05.165Z,45.00
2019-05-13T06:31:05.160Z,45.00
2019-05-13T06:32:17.695Z,45.00
2019-05-13T06:33:06.138Z,39.38
2019-05-13T06:34:05.125Z,39.38
2019-05-13T06:35:05.117Z,39.38
2019-05-13T06:36:05.138Z,45.00
2019-05-13T06:37:05.096Z,39.38
2019-05-13T06:38:05.079Z,39.38
2019-05-13T06:39:05.126Z,39.38
2019-05-13T06:40:05.058Z,45.00
2019-05-13T06:41:09.266Z,45.00
2019-05-13T06:42:06.039Z,45.00
2019-05-13T06:43:05.036Z,45.00
2019-05-13T06:44:05.042Z,45.00
2019-05-13T06:45:05.009Z,45.00
2019-05-13T06:46:05.004Z,45.00
2019-05-13T06:47:04.989Z,39.38
2019-05-13T06:48:04.981Z,39.38
2019-05-13T06:49:04.963Z,45.00
2019-05-13T06:50:04.958Z,45.00
2019-05-13T06:51:04.951Z,39.38
2019-05-13T06:52:04.930Z,39.38
2019-05-13T06:53:08.273Z,39.38
2019-05-13T06:54:04.917Z,39.38
2019-05-13T06:55:04.903Z,39.38
2019-05-13T06:56:04.930Z,39.38
2019-05-13T06:57:06.187Z,39.38
2019-05-13T06:58:04.869Z,39.38
2019-05-13T06:59:04.867Z,39.38
2019-05-13T07:00:04.865Z,39.38
2019-05-13T07:01:04.878Z,39.38
2019-05-13T07:02:04.826Z,39.38
2019-05-13T07:03:04.838Z,33.75
2019-05-13T07:04:04.813Z,39.38
2019-05-13T07:05:04.848Z,39.38
2019-05-13T07:06:04.782Z,39.38
2019-05-13T07:07:13.163Z,39.38
2019-05-13T07:08:05.772Z,39.38
2019-05-13T07:09:04.747Z,39.38
2019-05-13T07:10:04.742Z,39.38
2019-05-13T07:11:17.813Z,39.38
2019-05-13T07:12:05.718Z,39.38
2019-05-13T07:13:04.715Z,39.38
2019-05-13T07:14:04.726Z,39.38
2019-05-13T07:15:04.687Z,39.38
2019-05-13T07:16:04.677Z,39.38
2019-05-13T07:17:04.670Z,39.38
2019-05-13T07:18:04.651Z,45.00
2019-05-13T07:19:04.706Z,45.00
2019-05-13T07:20:04.633Z,45.00
2019-05-13T07:21:04.620Z,45.00
2019-05-13T07:22:04.668Z,45.00
2019-05-13T07:23:04.596Z,45.00
2019-05-13T07:24:04.589Z,45.00
2019-05-13T07:25:04.578Z,45.00
2019-05-13T07:26:04.565Z,45.00
2019-05-13T07:27:04.568Z,45.00
2019-05-13T07:28:04.620Z,45.00
2019-05-13T07:29:05.140Z,50.62
2019-05-13T07:30:04.527Z,50.62
2019-05-13T07:31:04.520Z,50.62
2019-05-13T07:32:04.513Z,50.62
2019-05-13T07:33:04.489Z,50.62
2019-05-13T07:34:04.485Z,50.62
2019-05-13T07:35:04.614Z,50.62
2019-05-13T07:36:04.475Z,50.62
2019-05-13T07:37:04.461Z,50.62
2019-05-13T07:38:04.431Z,50.62
2019-05-13T07:39:04.424Z,50.62
2019-05-13T07:40:04.412Z,50.62
2019-05-13T07:41:04.403Z,50.62
2019-05-13T07:42:05.798Z,50.62
2019-05-13T07:43:04.380Z,50.62
2019-05-13T07:44:04.366Z,56.25
2019-05-13T07:45:04.360Z,56.25
2019-05-13T07:46:04.344Z,56.25
2019-05-13T07:47:04.345Z,56.25
2019-05-13T07:48:19.157Z,56.25
2019-05-13T07:49:05.384Z,56.25
2019-05-13T07:50:04.299Z,61.88
2019-05-13T07:51:04.985Z,61.88
2019-05-13T07:52:04.291Z,61.88
2019-05-13T07:53:04.268Z,61.88
2019-05-13T07:54:04.259Z,56.25
2019-05-13T07:55:04.243Z,56.25
2019-05-13T07:56:04.237Z,61.88
2019-05-13T07:57:04.240Z,67.50
2019-05-13T07:58:04.225Z,73.12
2019-05-13T07:59:04.207Z,78.75
2019-05-13T08:00:04.197Z,84.38
2019-05-13T08:01:04.181Z,90.00
2019-05-13T08:02:04.393Z,84.38
2019-05-13T08:03:04.157Z,90.00
2019-05-13T08:04:04.152Z,90.00
2019-05-13T08:05:04.137Z,90.00
2019-05-13T08:06:04.132Z,95.62
2019-05-13T08:07:04.138Z,95.62
2019-05-13T08:08:04.107Z,101.25
2019-05-13T08:09:04.100Z,106.88
2019-05-13T08:10:04.086Z,112.50
2019-05-13T08:11:04.069Z,112.50
2019-05-13T08:12:09.629Z,118.12
2019-05-13T08:13:05.051Z,118.12
2019-05-13T08:14:04.043Z,112.50
2019-05-13T08:15:04.034Z,101.25
2019-05-13T08:16:04.205Z,78.75
2019-05-13T08:17:04.006Z,61.88
2019-05-13T08:18:03.995Z,61.88
2019-05-13T08:19:03.983Z,61.88
2019-05-13T08:20:03.978Z,61.88
2019-05-13T08:21:03.960Z,61.88
2019-05-13T08:22:03.953Z,61.88
2019-05-13T08:23:03.942Z,61.88
2019-05-13T08:24:03.925Z,67.50
2019-05-13T08:25:03.914Z,84.38
2019-05-13T08:26:03.910Z,275.62
2019-05-13T08:27:03.898Z,444.38
2019-05-13T08:28:03.888Z,675.00
2019-05-13T08:29:05.921Z,326.25
2019-05-13T08:30:03.866Z,202.50
2019-05-13T08:31:03.855Z,1220.62
2019-05-13T08:32:03.857Z,2581.88
2019-05-13T08:33:03.856Z,2812.50
2019-05-13T08:34:03.821Z,2885.62
2019-05-13T08:35:08.950Z,2851.88
2019-05-13T08:36:04.803Z,2857.50
2019-05-13T08:37:03.793Z,2941.88
2019-05-13T08:38:03.780Z,2896.88
2019-05-13T08:39:03.766Z,2874.38
2019-05-13T08:40:03.760Z,2919.38
2019-05-13T08:41:03.748Z,3048.75
2019-05-13T08:42:15.022Z,3133.12
2019-05-13T08:43:06.785Z,3071.25
2019-05-13T08:44:03.719Z,2874.38
2019-05-13T08:45:03.705Z,2823.75
2019-05-13T08:46:03.689Z,2936.25
2019-05-13T08:47:03.718Z,3043.12
2019-05-13T08:48:03.670Z,3150.00
2019-05-13T08:49:04.040Z,3127.50
2019-05-13T08:50:04.586Z,2728.12
2019-05-13T08:51:03.658Z,2356.88
2019-05-13T08:52:03.633Z,2362.50
2019-05-13T08:53:03.630Z,2655.00
2019-05-13T08:54:03.603Z,2846.25
2019-05-13T08:55:03.593Z,2908.12
2019-05-13T08:56:03.580Z,2925.00
2019-05-13T08:57:03.568Z,2913.75
2019-05-13T08:58:03.564Z,2936.25
2019-05-13T08:59:03.553Z,2694.38
2019-05-13T09:00:05.350Z,2379.38
2019-05-13T09:01:03.565Z,2064.38
2019-05-13T09:02:03.685Z,1597.50
2019-05-13T09:03:06.188Z,990.00
2019-05-13T09:04:03.498Z,534.38
2019-05-13T09:05:03.548Z,219.38
2019-05-13T09:06:03.520Z,90.00
2019-05-13T09:07:03.465Z,90.00
2019-05-13T09:08:03.461Z,95.62
2019-05-13T09:09:03.438Z,101.25
2019-05-13T09:10:03.435Z,101.25
2019-05-13T09:11:03.416Z,135.00
2019-05-13T09:12:03.410Z,146.25
2019-05-13T09:13:03.399Z,163.12
2019-05-13T09:14:03.397Z,208.12
2019-05-13T09:15:03.661Z,489.38
2019-05-13T09:16:03.363Z,894.38
2019-05-13T09:17:03.357Z,1282.50
2019-05-13T09:18:03.443Z,1636.88
2019-05-13T09:19:03.922Z,2008.12
2019-05-13T09:20:03.323Z,2469.38
2019-05-13T09:21:03.311Z,3009.38
2019-05-13T09:22:03.593Z,3448.12
2019-05-13T09:23:03.342Z,3633.75
2019-05-13T09:24:03.287Z,3526.88
2019-05-13T09:25:03.267Z,3403.12
2019-05-13T09:26:03.260Z,3493.12
2019-05-13T09:27:03.245Z,3414.38
2019-05-13T09:28:03.236Z,3217.50
2019-05-13T09:29:03.231Z,3240.00
2019-05-13T09:30:03.235Z,3228.75
2019-05-13T09:31:03.209Z,3436.88
2019-05-13T09:32:04.010Z,180.00
2019-05-13T09:33:03.184Z,1501.88
2019-05-13T09:34:03.185Z,157.50
2019-05-13T09:35:03.283Z,163.12
2019-05-13T09:36:03.162Z,2981.25
2019-05-13T09:37:03.314Z,1991.25
2019-05-13T09:38:03.458Z,151.88
2019-05-13T09:39:03.120Z,146.25
2019-05-13T09:40:03.115Z,157.50
2019-05-13T09:41:03.096Z,112.50
2019-05-13T09:42:03.218Z,112.50
2019-05-13T09:43:03.074Z,129.38
2019-05-13T09:44:03.069Z,596.25
2019-05-13T09:45:03.060Z,2486.25
2019-05-13T09:46:03.045Z,2514.38
2019-05-13T09:47:03.106Z,3172.50
2019-05-13T09:48:03.043Z,3234.38
2019-05-13T09:49:14.836Z,3228.75
2019-05-13T09:50:04.717Z,3408.75
2019-05-13T09:51:02.994Z,3465.00
2019-05-13T09:52:02.982Z,3414.38
2019-05-13T09:53:03.020Z,3138.75
2019-05-13T09:54:02.966Z,3150.00
2019-05-13T09:55:03.266Z,2632.50
2019-05-13T09:56:02.953Z,731.25
2019-05-13T09:57:02.941Z,236.25
2019-05-13T09:58:02.915Z,309.38
2019-05-13T09:59:02.929Z,292.50
2019-05-13T10:00:02.893Z,258.75
2019-05-13T10:01:02.887Z,225.00
2019-05-13T10:02:03.504Z,202.50
2019-05-13T10:03:02.946Z,230.62
2019-05-13T10:04:03.323Z,264.38
2019-05-13T10:05:02.842Z,1231.88
2019-05-13T10:06:02.937Z,3172.50
2019-05-13T10:07:02.929Z,343.12
2019-05-13T10:08:02.803Z,1614.38
2019-05-13T10:09:02.817Z,219.38
2019-05-13T10:10:02.783Z,365.62
2019-05-13T10:11:02.776Z,247.50
2019-05-13T10:13:12.128Z,1468.12
2019-05-13T10:14:03.746Z,1113.75
2019-05-13T10:15:02.755Z,556.88
2019-05-13T10:16:02.722Z,208.12
2019-05-13T10:17:06.081Z,106.88
2019-05-13T10:18:02.753Z,90.00
2019-05-13T10:19:02.854Z,106.88
2019-05-13T10:20:02.722Z,90.00
2019-05-13T10:21:02.673Z,185.62
2019-05-13T10:22:02.656Z,185.62
2019-05-13T10:23:02.642Z,163.12
2019-05-13T10:24:02.632Z,157.50
2019-05-13T10:25:02.793Z,146.25
2019-05-13T10:26:03.468Z,225.00
2019-05-13T10:27:02.810Z,163.12
2019-05-13T10:28:02.584Z,253.12
2019-05-13T10:29:02.655Z,253.12
2019-05-13T10:30:02.573Z,253.12
2019-05-13T10:31:02.787Z,213.75
2019-05-13T10:32:03.589Z,140.62
2019-05-13T10:33:02.894Z,129.38
2019-05-13T10:34:02.712Z,129.38
2019-05-13T10:35:03.532Z,123.75
2019-05-13T10:36:03.769Z,118.12
2019-05-13T10:37:02.768Z,118.12
2019-05-13T10:38:04.363Z,123.75
2019-05-13T10:39:02.464Z,129.38
2019-05-13T10:40:02.733Z,180.00
2019-05-13T10:41:03.432Z,298.12
2019-05-13T10:42:03.664Z,433.12
2019-05-13T10:43:02.421Z,635.62
2019-05-13T10:44:03.202Z,838.12
2019-05-13T10:45:02.805Z,1035.00
2019-05-13T10:46:02.955Z,1310.62
2019-05-13T10:47:02.700Z,1524.38
2019-05-13T10:48:02.933Z,1783.12
2019-05-13T10:49:02.357Z,2013.75
2019-05-13T10:50:02.997Z,2131.88
2019-05-13T10:51:02.542Z,2317.50
2019-05-13T10:52:03.097Z,2514.38
2019-05-13T10:53:02.812Z,2767.50
2019-05-13T10:54:02.300Z,3054.38
2019-05-13T10:55:02.300Z,3290.62
2019-05-13T10:56:03.346Z,3414.38
2019-05-13T10:57:04.044Z,3431.25
2019-05-13T10:58:02.543Z,3127.50
2019-05-13T10:59:03.112Z,3577.50
2019-05-13T11:00:03.353Z,3875.62
2019-05-13T11:01:03.067Z,2626.88
2019-05-13T11:02:02.573Z,3746.25
2019-05-13T11:03:02.254Z,3740.62
2019-05-13T11:04:02.796Z,3172.50
2019-05-13T11:05:03.156Z,3639.38
2019-05-13T11:06:02.183Z,3616.88
2019-05-13T11:07:03.029Z,3690.00
2019-05-13T11:08:02.229Z,3712.50
2019-05-13T11:09:02.337Z,3706.88
2019-05-13T11:10:02.746Z,3588.75
2019-05-13T11:11:02.265Z,3706.88
2019-05-13T11:12:02.354Z,3768.75
2019-05-13T11:13:06.141Z,3459.38
2019-05-13T11:14:10.049Z,3217.50
2019-05-13T11:15:03.086Z,3296.25
2019-05-13T11:16:02.561Z,3594.38
2019-05-13T11:17:02.064Z,3566.25
2019-05-13T11:18:03.082Z,3515.62
2019-05-13T11:19:02.883Z,3684.38
2019-05-13T11:20:03.396Z,3791.25
2019-05-13T11:21:02.417Z,3853.12
2019-05-13T11:22:03.028Z,3706.88
2019-05-13T11:23:02.661Z,3740.62
2019-05-13T11:24:03.301Z,3858.75
2019-05-13T11:25:02.668Z,3785.62
2019-05-13T11:26:03.182Z,3723.75
2019-05-13T11:27:02.730Z,3757.50
2019-05-13T11:28:01.947Z,3937.50
2019-05-13T11:29:02.824Z,4027.50
2019-05-13T11:30:05.613Z,691.88
2019-05-13T11:31:03.587Z,326.25
2019-05-13T11:32:02.744Z,3870.00
2019-05-13T11:33:02.395Z,298.12
2019-05-13T11:34:02.214Z,1316.25
2019-05-13T11:35:02.195Z,281.25
2019-05-13T11:36:03.224Z,140.62
2019-05-13T11:37:03.620Z,213.75
2019-05-13T11:38:01.886Z,3616.88
2019-05-13T11:39:02.941Z,3605.62
2019-05-13T11:40:02.791Z,3915.00
2019-05-13T11:41:02.392Z,3791.25
2019-05-13T11:42:02.509Z,3667.50
2019-05-13T11:43:01.940Z,3645.00
2019-05-13T11:44:12.455Z,3616.88
2019-05-13T11:45:02.766Z,3577.50
2019-05-13T11:46:02.389Z,3510.00
2019-05-13T11:47:02.887Z,2655.00
2019-05-13T11:48:02.462Z,781.88
2019-05-13T11:49:02.643Z,112.50
2019-05-13T11:50:02.580Z,118.12
2019-05-13T11:52:03.267Z,101.25
2019-05-13T11:53:05.980Z,95.62
2019-05-13T11:54:02.775Z,123.75
2019-05-13T11:55:02.572Z,151.88
2019-05-13T11:56:03.690Z,135.00
2019-05-13T11:57:06.195Z,112.50
2019-05-13T11:58:03.068Z,101.25
2019-05-13T11:59:04.407Z,95.62
2019-05-13T12:01:03.184Z,73.12
2019-05-13T12:03:04.244Z,73.12
2019-05-13T12:04:02.742Z,73.12
2019-05-13T12:05:03.759Z,67.50
2019-05-13T12:06:02.395Z,67.50
2019-05-13T12:07:03.428Z,84.38
2019-05-13T12:08:01.522Z,135.00
2019-05-13T12:09:03.134Z,106.88
2019-05-13T12:10:02.741Z,67.50
2019-05-13T12:11:04.182Z,67.50
2019-05-13T12:12:03.352Z,67.50
2019-05-13T12:13:01.468Z,95.62
2019-05-13T12:14:01.473Z,101.25
2019-05-13T12:15:27.133Z,163.12
2019-05-13T12:16:03.706Z,140.62
2019-05-13T12:17:02.257Z,146.25
2019-05-13T12:18:02.879Z,185.62
2019-05-13T12:19:03.433Z,163.12
2019-05-13T12:20:03.099Z,118.12
2019-05-13T12:21:03.241Z,135.00
2019-05-13T12:22:02.634Z,163.12
2019-05-13T12:23:03.453Z,129.38
2019-05-13T12:24:09.469Z,118.12
2019-05-13T12:25:02.500Z,118.12
2019-05-13T12:26:04.348Z,123.75
2019-05-13T12:27:03.667Z,118.12
2019-05-13T12:28:03.396Z,84.38
2019-05-13T12:29:02.805Z,73.12
2019-05-13T12:30:03.122Z,67.50
2019-05-13T12:31:03.314Z,67.50
2019-05-13T12:32:03.312Z,61.88
2019-05-13T12:33:03.141Z,61.88
2019-05-13T12:34:03.503Z,61.88
2019-05-13T12:35:03.581Z,61.88
2019-05-13T12:36:02.060Z,73.12
2019-05-13T12:37:03.230Z,78.75
2019-05-13T12:38:01.225Z,101.25
2019-05-13T12:39:01.197Z,123.75
2019-05-13T12:40:03.149Z,123.75
2019-05-13T12:41:05.046Z,118.12
2019-05-13T12:42:03.369Z,101.25
2019-05-13T12:43:02.115Z,106.88
2019-05-13T12:44:01.818Z,118.12
2019-05-13T12:45:09.336Z,123.75
2019-05-13T12:46:02.597Z,112.50
2019-05-13T12:48:03.298Z,112.50
2019-05-13T12:49:03.831Z,84.38
2019-05-13T12:50:03.201Z,78.75
2019-05-13T12:51:03.074Z,90.00
2019-05-13T12:52:04.431Z,90.00
2019-05-13T12:53:02.699Z,90.00
2019-05-13T12:54:03.735Z,67.50